Time;durP1;ratioP1;P1;durP2;ratioP2;P2;SDS_P1;SDS_P2;PMS_P1;PMS_P2;Temp;Humidity;BMP_temperature;BMP_pressure;BME280_temperature;BME280_humidity;BME280_pressure;Samples;Min_cycle;Max_cycle;Signal;HPM_P1;HPM_P2
2021/07/06 00:01:30;;;;;;;0.30;0.30;;;;;;;;;;4441331;28;20072;-62
2021/07/06 00:03:40;;;;;;;0.40;0.40;;;;;;;;;;4493441;28;20340;-62
2021/07/06 00:05:51;;;;;;;0.30;0.30;;;;;;;;;;4440412;28;20031;-63
2021/07/06 00:08:01;;;;;;;0.40;0.40;;;;;;;;;;4437820;28;20059;-62
2021/07/06 00:10:14;;;;;;;0.40;0.40;;;;;;;;;;4496571;28;20042;-62
2021/07/06 00:12:25;;;;;;;0.77;0.30;;;;;;;;;;4470073;28;20026;-62
2021/07/06 00:14:36;;;;;;;;;;;;;;;;;;4499459;28;20042;-62
2021/07/06 00:16:46;;;;;;;0.77;0.43;;;;;;;;;;4445313;28;19954;-64
2021/07/06 00:18:56;;;;;;;1.13;0.30;;;;;;;;;;4502772;28;20025;-62
2021/07/06 00:21:08;;;;;;;0.30;0.30;;;;;;;;;;4438624;28;20411;-62
2021/07/06 00:23:19;;;;;;;0.32;0.30;;;;;;;;;;4444108;28;20036;-62
2021/07/06 00:25:29;;;;;;;0.70;0.40;;;;;;;;;;4439337;28;20554;-62
2021/07/06 00:27:40;;;;;;;0.77;0.30;;;;;;;;;;4440323;28;20039;-61
2021/07/06 00:29:50;;;;;;;0.30;0.30;;;;;;;;;;4437975;28;20068;-61
2021/07/06 00:32:02;;;;;;;0.53;0.50;;;;;;;;;;4439150;28;20070;-62
2021/07/06 00:34:12;;;;;;;1.05;0.40;;;;;;;;;;4497039;28;20652;-61
2021/07/06 00:36:22;;;;;;;0.37;0.37;;;;;;;;;;4436761;28;20058;-61
2021/07/06 00:38:33;;;;;;;0.37;0.37;;;;;;;;;;4500427;28;20081;-62
2021/07/06 00:40:44;;;;;;;0.67;0.40;;;;;;;;;;4483355;28;20049;-62
2021/07/06 00:42:59;;;;;;;0.37;0.37;;;;;;;;;;4437736;28;20118;-61
2021/07/06 00:45:11;;;;;;;0.52;0.45;;;;;;;;;;4499374;28;20895;-61
2021/07/06 00:47:33;;;;;;;0.68;0.35;;;;;;;;;;4439203;28;20043;-61
2021/07/06 00:49:43;;;;;;;;;;;;;;;;;;4485262;28;20045;-61
2021/07/06 00:51:53;;;;;;;0.30;0.30;;;;;;;;;;4439235;28;20481;-62
2021/07/06 00:54:04;;;;;;;0.40;0.40;;;;;;;;;;4503091;28;20088;-62
2021/07/06 00:56:15;;;;;;;0.68;0.40;;;;;;;;;;4439793;28;20043;-62
2021/07/06 00:58:27;;;;;;;1.03;0.40;;;;;;;;;;4439364;28;20040;-61
2021/07/06 01:00:37;;;;;;;;;;;;;;;;;;4498553;28;20033;-62
2021/07/06 01:02:50;;;;;;;1.10;0.43;;;;;;;;;;4431369;28;19929;-62
2021/07/06 01:05:00;;;;;;;0.65;0.43;;;;;;;;;;4496697;28;20149;-61
2021/07/06 01:07:11;;;;;;;0.20;0.20;;;;;;;;;;4436702;28;20108;-61
2021/07/06 01:09:21;;;;;;;0.33;0.33;;;;;;;;;;4500135;28;20459;-62
2021/07/06 01:11:34;;;;;;;0.57;0.40;;;;;;;;;;4437887;28;20043;-61
2021/07/06 01:13:45;;;;;;;0.40;0.40;;;;;;;;;;4436975;28;20035;-62
2021/07/06 01:15:56;;;;;;;0.23;0.23;;;;;;;;;;4500725;28;20839;-62
2021/07/06 01:18:12;;;;;;;0.80;0.40;;;;;;;;;;4438294;28;20028;-62
2021/07/06 01:20:23;;;;;;;0.35;0.35;;;;;;;;;;4439486;28;20036;-62
2021/07/06 01:22:34;;;;;;;0.93;0.35;;;;;;;;;;4441986;28;20070;-62
2021/07/06 01:24:44;;;;;;;0.30;0.30;;;;;;;;;;4445209;28;20038;-62
2021/07/06 01:26:55;;;;;;;0.30;0.30;;;;;;;;;;4437598;28;22548;-62
2021/07/06 01:29:05;;;;;;;0.30;0.30;;;;;;;;;;4441256;28;20178;-61
2021/07/06 01:31:15;;;;;;;0.50;0.30;;;;;;;;;;4443544;28;20048;-62
2021/07/06 01:33:29;;;;;;;0.33;0.33;;;;;;;;;;4441668;28;20777;-62
2021/07/06 01:35:39;;;;;;;0.30;0.30;;;;;;;;;;4486048;28;20034;-61
2021/07/06 01:37:53;;;;;;;0.30;0.30;;;;;;;;;;4438559;28;20063;-62
2021/07/06 01:40:04;;;;;;;0.30;0.30;;;;;;;;;;4444227;28;20036;-62
2021/07/06 01:42:19;;;;;;;0.35;0.35;;;;;;;;;;4441351;28;20153;-62
2021/07/06 01:44:29;;;;;;;0.30;0.30;;;;;;;;;;4503153;28;20041;-62
2021/07/06 01:46:40;;;;;;;0.30;0.30;;;;;;;;;;4446185;28;20036;-62
2021/07/06 01:48:50;;;;;;;0.30;0.30;;;;;;;;;;4443772;28;20103;-62
2021/07/06 01:51:01;;;;;;;0.30;0.30;;;;;;;;;;4442970;28;20083;-62
2021/07/06 01:53:16;;;;;;;0.27;0.27;;;;;;;;;;4444444;28;20105;-62
2021/07/06 01:55:29;;;;;;;0.30;0.30;;;;;;;;;;4484589;28;21072;-62
2021/07/06 01:57:41;;;;;;;0.20;0.20;;;;;;;;;;4446126;28;20050;-62
2021/07/06 01:59:52;;;;;;;0.28;0.22;;;;;;;;;;4518062;28;20034;-61
2021/07/06 02:02:02;;;;;;;0.30;0.30;;;;;;;;;;4500933;28;20096;-61
2021/07/06 02:04:16;;;;;;;0.30;0.30;;;;;;;;;;4501960;28;20144;-61
2021/07/06 02:06:27;;;;;;;0.30;0.30;;;;;;;;;;4499538;28;20069;-62
2021/07/06 02:08:37;;;;;;;0.30;0.30;;;;;;;;;;4502386;28;20591;-62
2021/07/06 02:10:50;;;;;;;0.30;0.30;;;;;;;;;;4438915;28;20050;-61
2021/07/06 02:13:01;;;;;;;0.35;0.35;;;;;;;;;;4497864;28;20037;-61
2021/07/06 02:15:14;;;;;;;0.30;0.30;;;;;;;;;;4501954;28;20153;-62
2021/07/06 02:17:25;;;;;;;0.38;0.38;;;;;;;;;;4499791;28;20034;-62
2021/07/06 02:19:35;;;;;;;0.50;0.40;;;;;;;;;;4505151;28;20037;-62
2021/07/06 02:21:46;;;;;;;0.30;0.30;;;;;;;;;;4499741;28;20628;-62
2021/07/06 02:23:56;;;;;;;0.50;0.40;;;;;;;;;;4446039;28;20031;-62
2021/07/06 02:26:08;;;;;;;0.73;0.40;;;;;;;;;;4500047;28;20490;-62
2021/07/06 02:28:20;;;;;;;0.70;0.40;;;;;;;;;;4494711;28;20034;-62
2021/07/06 02:30:31;;;;;;;0.30;0.30;;;;;;;;;;4500701;28;20042;-62
2021/07/06 02:32:41;;;;;;;0.60;0.40;;;;;;;;;;4441972;28;20028;-61
2021/07/06 02:34:52;;;;;;;0.53;0.30;;;;;;;;;;4499150;28;20157;-62
2021/07/06 02:37:02;;;;;;;0.37;0.37;;;;;;;;;;4503493;28;20042;-62
2021/07/06 02:39:13;;;;;;;0.40;0.40;;;;;;;;;;4443533;28;20455;-62
2021/07/06 02:41:23;;;;;;;1.40;0.40;;;;;;;;;;4440960;28;20123;-62
2021/07/06 02:43:34;;;;;;;0.50;0.50;;;;;;;;;;4436164;28;20045;-61
2021/07/06 02:45:45;;;;;;;0.30;0.30;;;;;;;;;;4437061;28;20086;-62
2021/07/06 02:47:56;;;;;;;;;;;;;;;;;;4500704;28;20149;-62
2021/07/06 02:50:08;;;;;;;0.75;0.40;;;;;;;;;;4447337;28;19922;-62
2021/07/06 02:52:19;;;;;;;0.73;0.40;;;;;;;;;;4438276;28;20554;-62
2021/07/06 02:54:29;;;;;;;0.57;0.33;;;;;;;;;;4440196;28;20040;-62
2021/07/06 02:56:40;;;;;;;0.80;0.30;;;;;;;;;;4437727;28;20039;-62
2021/07/06 02:58:50;;;;;;;0.80;0.50;;;;;;;;;;4439039;28;20036;-61
2021/07/06 03:01:01;;;;;;;0.30;0.30;;;;;;;;;;4440629;28;20040;-62
2021/07/06 03:03:11;;;;;;;1.20;0.33;;;;;;;;;;4437107;28;20146;-61
2021/07/06 03:05:24;;;;;;;0.30;0.30;;;;;;;;;;4436399;28;20035;-62
2021/07/06 03:07:35;;;;;;;0.95;0.40;;;;;;;;;;4442097;28;20040;-62
2021/07/06 03:09:45;;;;;;;0.30;0.30;;;;;;;;;;4444806;28;20111;-61
2021/07/06 03:11:56;;;;;;;0.50;0.40;;;;;;;;;;4437365;28;20044;-61
2021/07/06 03:14:06;;;;;;;0.30;0.30;;;;;;;;;;4436445;28;20049;-62
2021/07/06 03:16:17;;;;;;;0.30;0.30;;;;;;;;;;4434558;28;20066;-61
2021/07/06 03:18:27;;;;;;;0.77;0.30;;;;;;;;;;4437881;28;20031;-62
2021/07/06 03:20:38;;;;;;;1.77;0.40;;;;;;;;;;4499700;28;20080;-62
2021/07/06 03:22:49;;;;;;;0.38;0.38;;;;;;;;;;4500095;28;20034;-62
2021/07/06 03:24:59;;;;;;;0.40;0.40;;;;;;;;;;4438203;28;20039;-61
2021/07/06 03:27:10;;;;;;;0.87;0.47;;;;;;;;;;4487804;28;20357;-62
2021/07/06 03:29:20;;;;;;;0.40;0.40;;;;;;;;;;4437320;28;20032;-62
2021/07/06 03:31:31;;;;;;;0.40;0.40;;;;;;;;;;4438373;28;20140;-62
2021/07/06 03:33:41;;;;;;;0.40;0.40;;;;;;;;;;4442249;28;20040;-62
2021/07/06 03:35:51;;;;;;;0.30;0.27;;;;;;;;;;4441319;28;20100;-61
2021/07/06 03:38:02;;;;;;;0.40;0.40;;;;;;;;;;4436780;28;20125;-62
2021/07/06 03:40:13;;;;;;;0.40;0.40;;;;;;;;;;4498986;28;20548;-62
2021/07/06 03:42:24;;;;;;;0.57;0.40;;;;;;;;;;4435156;28;20155;-62
2021/07/06 03:44:35;;;;;;;0.40;0.40;;;;;;;;;;4442551;28;20039;-62
2021/07/06 03:46:46;;;;;;;0.40;0.40;;;;;;;;;;4495732;28;20029;-61
2021/07/06 03:48:56;;;;;;;0.40;0.40;;;;;;;;;;4443580;28;20420;-62
2021/07/06 03:51:06;;;;;;;0.40;0.40;;;;;;;;;;4436989;28;20047;-61
2021/07/06 03:53:17;;;;;;;0.40;0.40;;;;;;;;;;4501852;28;20030;-61
2021/07/06 03:55:28;;;;;;;0.30;0.30;;;;;;;;;;4438667;28;20055;-61
2021/07/06 03:57:39;;;;;;;0.63;0.40;;;;;;;;;;4498451;28;20065;-62
2021/07/06 03:59:50;;;;;;;0.63;0.43;;;;;;;;;;4439043;28;20039;-62
2021/07/06 04:02:00;;;;;;;0.37;0.37;;;;;;;;;;4439916;28;20040;-61
2021/07/06 04:04:10;;;;;;;1.07;0.40;;;;;;;;;;4443839;28;20039;-61
2021/07/06 04:06:21;;;;;;;0.57;0.30;;;;;;;;;;4433573;28;20049;-61
2021/07/06 04:08:31;;;;;;;0.37;0.30;;;;;;;;;;4437830;28;20040;-62
2021/07/06 04:10:42;;;;;;;0.57;0.50;;;;;;;;;;4437060;28;20039;-61
2021/07/06 04:12:52;;;;;;;0.30;0.30;;;;;;;;;;4438658;28;20048;-61
2021/07/06 04:15:08;;;;;;;0.47;0.40;;;;;;;;;;4495980;28;20044;-61
2021/07/06 04:17:18;;;;;;;0.40;0.40;;;;;;;;;;4435153;28;20904;-62
2021/07/06 04:19:29;;;;;;;0.90;0.40;;;;;;;;;;4434521;28;20043;-61
2021/07/06 04:21:39;;;;;;;0.43;0.40;;;;;;;;;;4442406;28;20042;-62
2021/07/06 04:23:50;;;;;;;0.60;0.40;;;;;;;;;;4444671;28;20091;-62
2021/07/06 04:26:01;;;;;;;0.83;0.60;;;;;;;;;;4435983;28;20071;-61
2021/07/06 04:28:12;;;;;;;0.77;0.40;;;;;;;;;;4498575;28;20875;-61
2021/07/06 04:30:22;;;;;;;2.00;0.50;;;;;;;;;;4486392;28;20093;-61
2021/07/06 04:32:32;;;;;;;0.97;0.40;;;;;;;;;;4441480;28;20043;-61
2021/07/06 04:34:44;;;;;;;0.60;0.50;;;;;;;;;;4438522;28;20055;-61
2021/07/06 04:36:54;;;;;;;0.40;0.40;;;;;;;;;;4496550;28;20691;-61
2021/07/06 04:39:04;;;;;;;1.07;0.50;;;;;;;;;;4442941;28;20797;-61
2021/07/06 04:41:15;;;;;;;0.57;0.40;;;;;;;;;;4447078;28;20389;-61
2021/07/06 04:43:25;;;;;;;0.40;0.37;;;;;;;;;;4441074;28;20093;-62
2021/07/06 04:45:37;;;;;;;1.70;0.60;;;;;;;;;;4439800;28;20539;-62
2021/07/06 04:47:47;;;;;;;0.98;0.40;;;;;;;;;;4441071;28;20071;-61
2021/07/06 04:49:58;;;;;;;1.07;0.50;;;;;;;;;;4439631;28;20702;-62
2021/07/06 04:52:09;;;;;;;0.57;0.43;;;;;;;;;;4436502;28;20054;-61
2021/07/06 04:54:23;;;;;;;1.10;0.60;;;;;;;;;;4498145;28;20049;-61
2021/07/06 04:56:33;;;;;;;0.88;0.50;;;;;;;;;;4439997;28;20035;-62
2021/07/06 04:58:44;;;;;;;1.00;0.40;;;;;;;;;;4506224;28;20038;-61
2021/07/06 05:00:55;;;;;;;1.40;0.50;;;;;;;;;;4442524;28;20045;-61
2021/07/06 05:03:06;;;;;;;1.15;0.50;;;;;;;;;;4435670;28;20032;-61
2021/07/06 05:05:16;;;;;;;1.07;0.60;;;;;;;;;;4501002;28;20025;-61
2021/07/06 05:07:27;;;;;;;0.53;0.47;;;;;;;;;;4437752;28;20040;-61
2021/07/06 05:09:38;;;;;;;0.82;0.40;;;;;;;;;;4502405;28;20088;-62
2021/07/06 05:11:48;;;;;;;0.60;0.40;;;;;;;;;;4443185;28;21131;-61
2021/07/06 05:13:59;;;;;;;0.63;0.43;;;;;;;;;;4502843;28;20736;-61
2021/07/06 05:16:09;;;;;;;0.70;0.43;;;;;;;;;;4438229;28;20032;-61
2021/07/06 05:18:20;;;;;;;0.50;0.50;;;;;;;;;;4438870;28;20452;-61
2021/07/06 05:20:31;;;;;;;0.55;0.50;;;;;;;;;;4500924;28;20073;-61
2021/07/06 05:22:42;;;;;;;1.23;0.40;;;;;;;;;;4438515;28;20031;-62
2021/07/06 05:24:53;;;;;;;0.98;0.50;;;;;;;;;;4504947;28;20612;-62
2021/07/06 05:27:04;;;;;;;1.37;0.57;;;;;;;;;;4438979;28;20036;-62
2021/07/06 05:29:15;;;;;;;0.52;0.52;;;;;;;;;;4445158;28;20105;-62
2021/07/06 05:31:25;;;;;;;0.43;0.43;;;;;;;;;;4444963;28;20047;-62
2021/07/06 05:33:35;;;;;;;0.30;0.30;;;;;;;;;;4437833;28;20484;-62
2021/07/06 05:35:46;;;;;;;0.50;0.50;;;;;;;;;;4484170;28;20061;-62
2021/07/06 05:37:57;;;;;;;0.57;0.40;;;;;;;;;;4502317;28;20037;-62
2021/07/06 05:40:09;;;;;;;0.47;0.40;;;;;;;;;;4441667;28;20043;-62
2021/07/06 05:42:20;;;;;;;0.47;0.47;;;;;;;;;;4504474;28;20608;-62
2021/07/06 05:44:31;;;;;;;0.67;0.40;;;;;;;;;;4500901;28;20049;-62
2021/07/06 05:46:42;;;;;;;0.60;0.47;;;;;;;;;;4437764;28;20040;-62
2021/07/06 05:48:52;;;;;;;2.33;0.70;;;;;;;;;;4443412;28;20043;-62
2021/07/06 05:51:03;;;;;;;0.93;0.60;;;;;;;;;;4504021;28;20046;-62
2021/07/06 05:53:13;;;;;;;2.07;0.50;;;;;;;;;;4442677;28;20110;-62
2021/07/06 05:55:24;;;;;;;0.68;0.50;;;;;;;;;;4499660;28;20033;-62
2021/07/06 05:57:36;;;;;;;0.70;0.67;;;;;;;;;;4439471;28;20042;-62
2021/07/06 05:59:46;;;;;;;0.77;0.60;;;;;;;;;;4440424;28;20035;-62
2021/07/06 06:01:57;;;;;;;1.13;0.50;;;;;;;;;;4441989;28;20584;-62
2021/07/06 06:04:07;;;;;;;1.03;0.67;;;;;;;;;;4515900;28;20766;-62
2021/07/06 06:06:18;;;;;;;1.27;0.60;;;;;;;;;;4441760;28;20047;-62
2021/07/06 06:08:28;;;;;;;0.50;0.50;;;;;;;;;;4443304;28;20032;-62
2021/07/06 06:10:39;;;;;;;0.57;0.57;;;;;;;;;;4444557;28;20038;-62
2021/07/06 06:12:49;;;;;;;0.70;0.60;;;;;;;;;;4500688;28;20035;-62
2021/07/06 06:15:00;;;;;;;0.50;0.50;;;;;;;;;;4440965;28;20035;-62
2021/07/06 06:17:11;;;;;;;1.35;0.57;;;;;;;;;;4484696;28;20577;-62
2021/07/06 06:19:21;;;;;;;1.77;0.90;;;;;;;;;;4436711;28;20035;-62
2021/07/06 06:21:32;;;;;;;0.73;0.70;;;;;;;;;;4437683;28;20546;-62
2021/07/06 06:23:43;;;;;;;0.70;0.70;;;;;;;;;;4439435;28;20047;-62
2021/07/06 06:25:53;;;;;;;0.90;0.80;;;;;;;;;;4515804;28;20048;-62
2021/07/06 06:28:04;;;;;;;1.00;0.80;;;;;;;;;;4439126;28;20028;-61
2021/07/06 06:30:15;;;;;;;0.73;0.70;;;;;;;;;;4438155;28;20051;-61
2021/07/06 06:32:25;;;;;;;0.80;0.70;;;;;;;;;;4434281;28;20314;-62
2021/07/06 06:34:36;;;;;;;1.43;0.90;;;;;;;;;;4438224;28;20043;-62
2021/07/06 06:36:46;;;;;;;1.00;0.80;;;;;;;;;;4440132;28;20067;-62
2021/07/06 06:38:57;;;;;;;1.50;0.93;;;;;;;;;;4503491;28;20034;-61
2021/07/06 06:41:07;;;;;;;1.77;0.83;;;;;;;;;;4440185;28;20035;-60
2021/07/06 06:43:18;;;;;;;2.10;0.83;;;;;;;;;;4439239;28;20023;-61
2021/07/06 06:45:31;;;;;;;1.30;0.80;;;;;;;;;;4441196;28;20036;-60
2021/07/06 06:47:42;;;;;;;0.80;0.77;;;;;;;;;;4442598;28;20570;-61
2021/07/06 06:49:52;;;;;;;1.60;0.73;;;;;;;;;;4433532;28;20034;-60
2021/07/06 06:52:03;;;;;;;0.87;0.67;;;;;;;;;;4440008;28;20031;-60
2021/07/06 06:54:14;;;;;;;0.63;0.60;;;;;;;;;;4440382;28;20032;-61
2021/07/06 06:56:24;;;;;;;0.93;0.60;;;;;;;;;;4502441;28;20032;-60
2021/07/06 06:58:34;;;;;;;1.50;0.60;;;;;;;;;;4437023;28;20052;-60
2021/07/06 07:00:45;;;;;;;0.67;0.53;;;;;;;;;;4442634;28;20032;-61
2021/07/06 07:02:55;;;;;;;1.90;1.00;;;;;;;;;;4500186;28;20033;-61
2021/07/06 07:05:07;;;;;;;1.57;0.50;;;;;;;;;;4439831;28;20035;-60
2021/07/06 07:07:20;;;;;;;1.35;0.60;;;;;;;;;;4439805;28;20027;-60
2021/07/06 07:09:30;;;;;;;0.50;0.40;;;;;;;;;;4498533;28;20872;-61
2021/07/06 07:11:41;;;;;;;0.50;0.50;;;;;;;;;;4498323;28;20092;-61
2021/07/06 07:13:51;;;;;;;1.07;0.50;;;;;;;;;;4501076;28;20049;-61
2021/07/06 07:16:03;;;;;;;0.57;0.57;;;;;;;;;;4435120;28;20040;-60
2021/07/06 07:18:13;;;;;;;1.02;0.60;;;;;;;;;;4497995;28;20042;-61
2021/07/06 07:20:24;;;;;;;2.10;0.80;;;;;;;;;;4439992;28;20039;-60
2021/07/06 07:22:34;;;;;;;0.50;0.50;;;;;;;;;;4447130;28;20047;-61
2021/07/06 07:24:45;;;;;;;0.43;0.43;;;;;;;;;;4438092;28;20028;-60
2021/07/06 07:26:56;;;;;;;0.53;0.40;;;;;;;;;;4499336;28;20030;-61
2021/07/06 07:29:06;;;;;;;1.10;0.50;;;;;;;;;;4483860;28;20034;-61
2021/07/06 07:31:17;;;;;;;1.07;0.60;;;;;;;;;;4441684;28;20146;-60
2021/07/06 07:33:27;;;;;;;1.80;0.60;;;;;;;;;;4441000;28;20134;-60
2021/07/06 07:35:38;;;;;;;0.93;0.57;;;;;;;;;;4444137;28;20032;-60
2021/07/06 07:37:48;;;;;;;0.87;0.60;;;;;;;;;;4437431;28;20612;-60
2021/07/06 07:39:59;;;;;;;1.23;0.70;;;;;;;;;;4496326;28;20054;-60
2021/07/06 07:42:10;;;;;;;0.68;0.60;;;;;;;;;;4437852;28;20116;-61
2021/07/06 07:44:20;;;;;;;1.60;0.60;;;;;;;;;;4495701;28;20030;-60
2021/07/06 07:46:31;;;;;;;0.87;0.40;;;;;;;;;;4437202;28;20035;-60
2021/07/06 07:48:41;;;;;;;0.40;0.40;;;;;;;;;;4442343;28;20043;-60
2021/07/06 07:50:52;;;;;;;1.20;0.70;;;;;;;;;;4439641;28;20141;-60
2021/07/06 07:53:02;;;;;;;1.00;0.70;;;;;;;;;;4440330;28;20032;-60
2021/07/06 07:55:13;;;;;;;0.50;0.40;;;;;;;;;;4439039;28;20571;-60
2021/07/06 07:57:23;;;;;;;1.10;0.60;;;;;;;;;;4499631;28;20068;-60
2021/07/06 07:59:34;;;;;;;0.83;0.40;;;;;;;;;;4483340;28;20030;-59
2021/07/06 08:01:44;;;;;;;0.40;0.40;;;;;;;;;;4439781;28;20711;-59
2021/07/06 08:03:55;;;;;;;1.03;0.50;;;;;;;;;;4499512;28;20041;-59
2021/07/06 08:06:05;;;;;;;1.50;0.60;;;;;;;;;;4439319;28;20727;-59
2021/07/06 08:08:17;;;;;;;0.40;0.40;;;;;;;;;;4438064;28;20065;-59
2021/07/06 08:10:27;;;;;;;;;;;;;;;;;;4439780;28;21208;-58
2021/07/06 08:12:37;;;;;;;0.40;0.40;;;;;;;;;;4499228;28;19932;-59
2021/07/06 08:14:50;;;;;;;0.90;0.50;;;;;;;;;;4498935;28;20117;-59
2021/07/06 08:17:01;;;;;;;2.47;0.55;;;;;;;;;;4473823;28;20031;-58
2021/07/06 08:19:12;;;;;;;1.50;0.68;;;;;;;;;;4498969;28;20824;-59
2021/07/06 08:21:23;;;;;;;0.40;0.40;;;;;;;;;;4443800;28;20044;-58
2021/07/06 08:23:33;;;;;;;0.40;0.40;;;;;;;;;;4514583;28;20103;-58
2021/07/06 08:25:44;;;;;;;0.57;0.50;;;;;;;;;;4440061;28;20031;-58
2021/07/06 08:27:55;;;;;;;0.50;0.50;;;;;;;;;;4502933;28;20038;-58
2021/07/06 08:30:06;;;;;;;0.90;0.50;;;;;;;;;;4435009;28;20040;-58
2021/07/06 08:32:17;;;;;;;0.95;0.50;;;;;;;;;;4437828;28;20861;-58
2021/07/06 08:34:27;;;;;;;0.40;0.40;;;;;;;;;;4442776;28;20099;-58
2021/07/06 08:36:38;;;;;;;0.40;0.40;;;;;;;;;;4438916;28;20602;-59
2021/07/06 08:38:48;;;;;;;1.40;0.47;;;;;;;;;;4498537;28;20038;-58
2021/07/06 08:40:58;;;;;;;0.50;0.50;;;;;;;;;;4439553;28;20039;-58
2021/07/06 08:43:09;;;;;;;0.40;0.40;;;;;;;;;;4498692;28;21067;-57
2021/07/06 08:45:21;;;;;;;0.50;0.50;;;;;;;;;;4436710;28;20261;-58
2021/07/06 08:47:32;;;;;;;0.50;0.50;;;;;;;;;;4503977;28;20068;-57
2021/07/06 08:49:47;;;;;;;1.45;0.52;;;;;;;;;;4497891;28;20061;-58
2021/07/06 08:51:59;;;;;;;0.60;0.60;;;;;;;;;;4436916;28;20827;-58
2021/07/06 08:54:09;;;;;;;1.08;0.50;;;;;;;;;;4502995;28;20109;-57
2021/07/06 08:56:20;;;;;;;1.30;0.60;;;;;;;;;;4438113;28;20043;-57
2021/07/06 08:58:30;;;;;;;0.93;0.50;;;;;;;;;;4443539;28;20050;-58
2021/07/06 09:00:40;;;;;;;0.73;0.50;;;;;;;;;;4442077;28;20030;-58
2021/07/06 09:03:05;;;;;;;1.33;0.80;;;;;;;;;;4483406;28;20042;-58
2021/07/06 09:05:22;;;;;;;0.57;0.50;;;;;;;;;;4484184;28;20794;-58
2021/07/06 09:07:41;;;;;;;1.73;0.65;;;;;;;;;;4498374;28;20663;-58
2021/07/06 09:09:51;;;;;;;0.50;0.50;;;;;;;;;;4483914;28;20079;-58
2021/07/06 09:12:02;;;;;;;0.63;0.40;;;;;;;;;;4440453;28;20047;-58
2021/07/06 09:14:13;;;;;;;0.50;0.50;;;;;;;;;;4436519;28;20028;-58
2021/07/06 09:16:26;;;;;;;0.93;0.60;;;;;;;;;;4437190;28;20036;-58
2021/07/06 09:18:38;;;;;;;0.60;0.60;;;;;;;;;;4442465;28;20036;-59
2021/07/06 09:21:08;;;;;;;0.95;0.63;;;;;;;;;;4440463;28;20036;-58
2021/07/06 09:23:18;;;;;;;0.82;0.60;;;;;;;;;;4482101;28;20584;-58
2021/07/06 09:25:29;;;;;;;0.40;0.40;;;;;;;;;;4438713;28;20836;-58
2021/07/06 09:27:40;;;;;;;0.60;0.60;;;;;;;;;;4436220;28;20527;-58
2021/07/06 09:30:04;;;;;;;0.60;0.60;;;;;;;;;;4497882;28;20872;-58
2021/07/06 09:32:22;;;;;;;0.75;0.60;;;;;;;;;;4436187;28;20051;-58
2021/07/06 09:34:33;;;;;;;0.40;0.40;;;;;;;;;;4441445;28;21028;-59
2021/07/06 09:36:50;;;;;;;0.50;0.50;;;;;;;;;;4436882;28;20039;-59
2021/07/06 09:39:08;;;;;;;0.50;0.50;;;;;;;;;;4500664;28;20030;-58
2021/07/06 09:41:18;;;;;;;0.70;0.60;;;;;;;;;;4502949;28;20041;-58
2021/07/06 09:43:30;;;;;;;0.77;0.50;;;;;;;;;;4439960;28;20038;-59
2021/07/06 09:45:48;;;;;;;0.40;0.40;;;;;;;;;;4497045;28;20044;-59
2021/07/06 09:48:06;;;;;;;0.40;0.40;;;;;;;;;;4501354;28;20577;-59
2021/07/06 09:50:17;;;;;;;0.55;0.40;;;;;;;;;;4504746;28;21016;-59
2021/07/06 09:52:33;;;;;;;0.70;0.70;;;;;;;;;;4438201;28;20082;-59
2021/07/06 09:54:45;;;;;;;0.40;0.40;;;;;;;;;;4500044;28;21382;-59
2021/07/06 09:57:04;;;;;;;0.98;0.50;;;;;;;;;;4443132;28;20642;-59
2021/07/06 09:59:16;;;;;;;0.57;0.50;;;;;;;;;;4505531;28;20037;-59
2021/07/06 10:01:27;;;;;;;1.10;0.57;;;;;;;;;;4443086;28;20043;-59
2021/07/06 10:03:38;;;;;;;;;;;;;;;;;;4499502;28;20577;-59
2021/07/06 10:05:50;;;;;;;1.38;0.38;;;;;;;;;;4515840;28;19917;-59
2021/07/06 10:08:01;;;;;;;1.20;0.50;;;;;;;;;;4502257;28;20551;-59
2021/07/06 10:10:13;;;;;;;0.60;0.30;;;;;;;;;;4437961;28;20603;-59
2021/07/06 10:12:24;;;;;;;0.63;0.52;;;;;;;;;;4437403;28;20051;-59
2021/07/06 10:14:35;;;;;;;1.08;0.60;;;;;;;;;;4499144;28;20073;-59
2021/07/06 10:16:46;;;;;;;0.40;0.40;;;;;;;;;;4472540;28;20122;-59
2021/07/06 10:18:57;;;;;;;0.50;0.40;;;;;;;;;;4436718;28;20040;-59
2021/07/06 10:21:08;;;;;;;0.67;0.53;;;;;;;;;;4446934;28;20489;-59
2021/07/06 10:23:20;;;;;;;0.50;0.50;;;;;;;;;;4440863;28;20048;-60
2021/07/06 10:25:32;;;;;;;0.90;0.60;;;;;;;;;;4496501;28;20038;-59
2021/07/06 10:27:50;;;;;;;0.70;0.50;;;;;;;;;;4502408;28;20026;-59
2021/07/06 10:30:19;;;;;;;0.45;0.45;;;;;;;;;;4446452;28;20031;-59
2021/07/06 10:32:40;;;;;;;0.32;0.30;;;;;;;;;;4442881;28;20063;-59
2021/07/06 10:34:50;;;;;;;0.47;0.43;;;;;;;;;;4505597;28;20932;-60
2021/07/06 10:37:03;;;;;;;0.40;0.40;;;;;;;;;;4441609;28;20255;-60
2021/07/06 10:39:15;;;;;;;0.30;0.30;;;;;;;;;;4517698;28;20043;-59
2021/07/06 10:41:35;;;;;;;0.50;0.50;;;;;;;;;;4497906;28;20032;-60
2021/07/06 10:43:45;;;;;;;0.80;0.50;;;;;;;;;;4436759;28;20038;-60
2021/07/06 10:45:57;;;;;;;0.80;0.40;;;;;;;;;;4438687;28;20043;-60
2021/07/06 10:48:07;;;;;;;0.40;0.40;;;;;;;;;;4515606;28;20047;-60
2021/07/06 10:50:30;;;;;;;0.80;0.40;;;;;;;;;;4502499;28;20133;-60
2021/07/06 10:52:40;;;;;;;0.40;0.40;;;;;;;;;;4436219;28;20052;-60
2021/07/06 10:54:51;;;;;;;0.40;0.40;;;;;;;;;;4500096;28;20034;-60
2021/07/06 10:57:10;;;;;;;0.43;0.40;;;;;;;;;;4439491;28;20564;-60
2021/07/06 10:59:25;;;;;;;0.73;0.52;;;;;;;;;;4442708;28;20039;-60
2021/07/06 11:01:36;;;;;;;0.65;0.40;;;;;;;;;;4436447;28;20120;-60
2021/07/06 11:03:46;;;;;;;0.73;0.63;;;;;;;;;;4497128;28;20247;-60
2021/07/06 11:05:57;;;;;;;0.60;0.40;;;;;;;;;;4438837;28;20400;-59
2021/07/06 11:08:07;;;;;;;0.40;0.40;;;;;;;;;;4435764;28;20042;-60
2021/07/06 11:10:18;;;;;;;0.30;0.30;;;;;;;;;;4439006;28;20036;-60
2021/07/06 11:12:37;;;;;;;0.80;0.50;;;;;;;;;;4499862;28;20058;-61
2021/07/06 11:14:58;;;;;;;0.47;0.40;;;;;;;;;;4500563;28;20100;-60
2021/07/06 11:17:08;;;;;;;0.47;0.45;;;;;;;;;;4443060;28;20049;-60
2021/07/06 11:19:39;;;;;;;1.03;0.60;;;;;;;;;;4506304;28;20042;-60
2021/07/06 11:22:07;;;;;;;0.50;0.50;;;;;;;;;;4441680;28;20609;-60
2021/07/06 11:24:18;;;;;;;0.70;0.60;;;;;;;;;;4436981;28;20583;-60
2021/07/06 11:26:40;;;;;;;0.53;0.40;;;;;;;;;;4500299;28;20034;-60
2021/07/06 11:29:01;;;;;;;0.50;0.30;;;;;;;;;;4502654;28;20113;-60
2021/07/06 11:31:16;;;;;;;;;;;;;;;;;;4435503;28;20059;-60
2021/07/06 11:33:33;;;;;;;0.40;0.40;;;;;;;;;;4436758;28;19965;-60
2021/07/06 11:35:49;;;;;;;1.15;0.40;;;;;;;;;;4501845;28;20128;-60
2021/07/06 11:38:03;;;;;;;0.30;0.30;;;;;;;;;;4500432;28;20022;-60
2021/07/06 11:40:16;;;;;;;0.30;0.30;;;;;;;;;;4437387;28;20036;-60
2021/07/06 11:42:30;;;;;;;0.30;0.30;;;;;;;;;;4439135;28;20783;-60
2021/07/06 11:44:46;;;;;;;0.30;0.30;;;;;;;;;;4439723;28;20059;-60
2021/07/06 11:47:10;;;;;;;0.35;0.35;;;;;;;;;;4441038;28;20126;-60
2021/07/06 11:49:21;;;;;;;0.40;0.30;;;;;;;;;;4441800;28;20040;-60
2021/07/06 11:51:38;;;;;;;1.07;0.30;;;;;;;;;;4438869;28;20040;-60
2021/07/06 11:54:02;;;;;;;0.30;0.30;;;;;;;;;;4439941;28;20032;-60
2021/07/06 11:56:13;;;;;;;0.40;0.30;;;;;;;;;;4436385;28;20082;-60
2021/07/06 11:58:25;;;;;;;;;;;;;;;;;;4499507;28;20034;-60
2021/07/06 12:00:39;;;;;;;0.20;0.20;;;;;;;;;;4443918;28;21171;-60
2021/07/06 12:03:15;;;;;;;0.40;0.30;;;;;;;;;;4488802;28;20038;-60
2021/07/06 12:05:25;;;;;;;0.30;0.30;;;;;;;;;;4435844;28;20097;-60
2021/07/06 12:07:35;;;;;;;0.23;0.23;;;;;;;;;;4440654;28;20743;-60
2021/07/06 12:09:46;;;;;;;0.27;0.27;;;;;;;;;;4443921;28;20111;-60
2021/07/06 12:12:13;;;;;;;0.30;0.30;;;;;;;;;;4437523;28;20040;-61
2021/07/06 12:14:24;;;;;;;0.38;0.38;;;;;;;;;;4435210;28;20662;-60
2021/07/06 12:16:36;;;;;;;0.80;0.40;;;;;;;;;;4444565;28;20450;-60
2021/07/06 12:19:09;;;;;;;0.30;0.30;;;;;;;;;;4438721;28;20044;-60
2021/07/06 12:21:26;;;;;;;0.98;0.40;;;;;;;;;;4438608;28;20708;-59
2021/07/06 12:23:46;;;;;;;0.30;0.30;;;;;;;;;;4437855;28;20928;-60
2021/07/06 12:25:58;;;;;;;0.40;0.38;;;;;;;;;;4437077;28;20036;-60
2021/07/06 12:28:08;;;;;;;0.38;0.30;;;;;;;;;;4500203;28;20037;-60
2021/07/06 12:30:19;;;;;;;0.40;0.40;;;;;;;;;;4439721;28;20467;-60
2021/07/06 12:32:30;;;;;;;0.40;0.40;;;;;;;;;;4440891;28;20047;-60
2021/07/06 12:34:56;;;;;;;0.32;0.30;;;;;;;;;;4436438;28;20039;-60
2021/07/06 12:37:10;;;;;;;0.50;0.30;;;;;;;;;;4502620;28;20029;-60
2021/07/06 12:39:33;;;;;;;0.93;0.40;;;;;;;;;;4496434;28;20078;-60
2021/07/06 12:41:58;;;;;;;0.25;0.25;;;;;;;;;;4438905;28;20167;-60
2021/07/06 12:44:09;;;;;;;1.95;0.40;;;;;;;;;;4439294;28;20149;-60
2021/07/06 12:46:24;;;;;;;0.40;0.40;;;;;;;;;;4443134;28;20074;-60
2021/07/06 12:48:35;;;;;;;0.30;0.30;;;;;;;;;;4444257;28;20036;-60
2021/07/06 12:50:47;;;;;;;0.40;0.40;;;;;;;;;;4436197;28;20157;-60
2021/07/06 12:53:04;;;;;;;0.30;0.30;;;;;;;;;;4438659;28;20039;-60
2021/07/06 12:55:25;;;;;;;0.30;0.30;;;;;;;;;;4495958;28;20030;-60
2021/07/06 12:57:36;;;;;;;0.65;0.30;;;;;;;;;;4438247;28;20040;-60
2021/07/06 12:59:47;;;;;;;0.32;0.32;;;;;;;;;;4496017;28;20038;-60
2021/07/06 13:01:58;;;;;;;0.73;0.40;;;;;;;;;;4436041;28;20032;-60
2021/07/06 13:04:08;;;;;;;0.30;0.30;;;;;;;;;;4500768;28;20050;-60
2021/07/06 13:06:20;;;;;;;0.47;0.30;;;;;;;;;;4440982;28;20420;-60
2021/07/06 13:08:32;;;;;;;0.30;0.30;;;;;;;;;;4437325;28;20038;-61
2021/07/06 13:10:43;;;;;;;0.28;0.28;;;;;;;;;;4501455;28;20040;-61
2021/07/06 13:12:56;;;;;;;0.30;0.30;;;;;;;;;;4440475;28;20066;-60
2021/07/06 13:15:08;;;;;;;0.57;0.30;;;;;;;;;;4502470;28;20045;-60